Port Allegany, Pennsylvania
Current Conditions -  °F | °C
As of 9:17 AM on Sunday 25 Jan 2015 (Local Time) from KBFD Reporting Station
Overcast Overcast  
Wind Chill: 13°   Ceiling: 2000
Heat Index: 23°   Visibility: 10mi
Dew Point: 18°   Wind: 9mph
Humidity: 81%   Direction: 340°NNW
Pressure: 29.72"   Gusts: NA
Location:  41.81°N, 78.28°W
Report Text: KBFD 251417Z AUTO 34008KT 10SM SCT009 SCT013 OVC020 M05/M08 A2972 RMK AO2 T10501078
Loading
Personal Weather Stations






























Interactive Weather Map New forecast layout! Learn more

10-Day Weather Forecast

Advertisements
Track Severe Weather on mobile